Home > Products > Valid Products > TAF

000
FTUS46 KOTX 212320
TAFGEG
TAF
KGEG 212320Z 2200/2224 06004KT P6SM VCTS SCT060CB BKN090
     FM220400 09005KT P6SM FEW050 BKN100
     FM220700 07004KT P6SM -SHRA VCTS FEW040 SCT070CB OVC120
     FM221200 06005KT P6SM VCSH SCT050 BKN080
     FM222200 05009KT P6SM VCTS SCT060CB BKN090=



000
FTUS46 KOTX 212320
TAFLWS
TAF
KLWS 212320Z 2200/2224 31006KT P6SM SCT080 SCT200
     FM220700 10003KT P6SM VCSH SCT060 SCT200
     FM221500 36004KT P6SM -SHRA BKN060 BKN120=



000
FTUS46 KOTX 212320
TAFMWH
TAF
KMWH 212320Z 2200/2224 21008KT P6SM FEW080 SCT200
     FM220300 VRB04KT P6SM SCT080
     FM222200 01012KT P6SM -SHRA BKN070 BKN120=



000
FTUS46 KOTX 212320
TAFEAT
TAF
KEAT 212320Z 2200/2224 VRB05KT P6SM VCTS FEW080CB BKN120
     FM220300 31009KT P6SM -SHRA SCT060 BKN080
     FM222100 29012KT P6SM SCT060 BKN080=



000
FTUS46 KOTX 212320
TAFPUW
TAF
KPUW 212320Z 2200/2224 27006KT P6SM SCT070 SCT200
     FM220700 VRB04KT P6SM VCSH SCT060 SCT200
     FM221500 32003KT P6SM -SHRA BKN060 BKN120=



000
FTUS46 KOTX 212320
TAFCOE
TAF
KCOE 212320Z 2200/2224 06007KT P6SM VCTS SCT060CB BKN090
     FM220400 04008KT P6SM FEW050 BKN100
     FM220700 05009KT P6SM -SHRA VCTS FEW040 SCT070CB OVC120
     FM221200 06010KT P6SM VCSH SCT050 BKN080
     FM222200 06012G16KT P6SM VCTS SCT060CB BKN090
      AMD LTD TO CLD AND VIS=



000
FTUS46 KOTX 212320
TAFLWS
TAF
KLWS 212320Z 2200/2224 31006KT P6SM SCT080 SCT200
     FM220700 10003KT P6SM VCSH SCT060 SCT200
     FM221500 36004KT P6SM -SHRA BKN060 BKN120=



000
FTUS46 KOTX 212320
TAFGEG
TAF
KGEG 212320Z 2200/2224 06004KT P6SM VCTS SCT060CB BKN090
     FM220400 09005KT P6SM FEW050 BKN100
     FM220700 07004KT P6SM -SHRA VCTS FEW040 SCT070CB OVC120
     FM221200 06005KT P6SM VCSH SCT050 BKN080
     FM222200 05009KT P6SM VCTS SCT060CB BKN090=



000
FTUS46 KOTX 212320
TAFSFF
TAF
KSFF 212320Z 2200/2224 13004KT P6SM VCTS SCT060CB BKN090
     FM220400 VRB03KT P6SM FEW050 BKN100
     FM220700 VRB03KT P6SM -SHRA VCTS FEW040 SCT070CB OVC120
     FM221200 05005KT P6SM VCSH SCT050 BKN080
     FM222200 05006KT P6SM VCTS SCT060CB BKN090=



000
FTUS46 KOTX 212320
TAFMWH
TAF
KMWH 212320Z 2200/2224 21008KT P6SM FEW080 SCT200
     FM220300 VRB04KT P6SM SCT080
     FM222200 01012KT P6SM -SHRA BKN070 BKN120=



000
FTUS46 KOTX 212320
TAFPUW
TAF
KPUW 212320Z 2200/2224 27006KT P6SM SCT070 SCT200
     FM220700 VRB04KT P6SM VCSH SCT060 SCT200
     FM221500 32003KT P6SM -SHRA BKN060 BKN120=



000
FTUS46 KOTX 212320
TAFEAT
TAF
KEAT 212320Z 2200/2224 VRB05KT P6SM VCTS FEW080CB BKN120
     FM220300 31009KT P6SM -SHRA SCT060 BKN080
     FM222100 29012KT P6SM SCT060 BKN080=



000
FTUS46 KOTX 212320
TAFSFF
TAF
KSFF 212320Z 2200/2224 13004KT P6SM VCTS SCT060CB BKN090
     FM220400 VRB03KT P6SM FEW050 BKN100
     FM220700 VRB03KT P6SM -SHRA VCTS FEW040 SCT070CB OVC120
     FM221200 05005KT P6SM VCSH SCT050 BKN080
     FM222200 05006KT P6SM VCTS SCT060CB BKN090=



000
FTUS46 KOTX 212320
TAFCOE
TAF
KCOE 212320Z 2200/2224 06007KT P6SM VCTS SCT060CB BKN090
     FM220400 04008KT P6SM FEW050 BKN100
     FM220700 05009KT P6SM -SHRA VCTS FEW040 SCT070CB OVC120
     FM221200 06010KT P6SM VCSH SCT050 BKN080
     FM222200 06012G16KT P6SM VCTS SCT060CB BKN090
      AMD LTD TO CLD AND VIS=



000
FTUS46 KOTX 211739
TAFGEG
TAF
KGEG 211739Z 2118/2218 14006KT P6SM FEW040 SCT100
     FM212300 06004KT P6SM VCTS SCT060CB BKN090
     FM220400 09005KT P6SM FEW050 BKN100
     FM220700 07004KT P6SM -SHRA VCTS FEW040 SCT070CB OVC120
     FM221200 06005KT P6SM VCSH SCT050 BKN080=



000
FTUS46 KOTX 211739
TAFPUW
TAF
KPUW 211739Z 2118/2218 27006KT P6SM SCT070 SCT200
     FM220700 VRB04KT P6SM VCSH SCT060 SCT200=



000
FTUS46 KOTX 211739
TAFSFF
TAF
KSFF 211739Z 2118/2218 15004KT P6SM FEW050 SCT100
     FM212300 13004KT P6SM VCTS SCT060CB BKN090
     FM220400 VRB03KT P6SM FEW050 BKN100
     FM220700 VRB03KT P6SM -SHRA VCTS FEW040 SCT070CB OVC120
     FM221200 05005KT P6SM VCSH SCT050 BKN080=



000
FTUS46 KOTX 211739
TAFLWS
TAF
KLWS 211739Z 2118/2218 31006KT P6SM SCT080 SCT200
     FM220700 10003KT P6SM VCSH SCT060 SCT200=



000
FTUS46 KOTX 211739
TAFEAT
TAF
KEAT 211739Z 2118/2218 32008KT P6SM FEW100
     FM212100 13006KT P6SM FEW080 SCT120
     FM212300 VRB05KT P6SM VCTS FEW080CB BKN120
     FM220300 31009KT P6SM -SHRA SCT060 BKN080=



000
FTUS46 KOTX 211739
TAFMWH
TAF
KMWH 211739Z 2118/2218 15006KT P6SM FEW070 SCT200
     FM212100 21008KT P6SM FEW080 SCT200
     FM220300 VRB04KT P6SM SCT080=



000
FTUS46 KOTX 211739
TAFCOE
TAF
KCOE 211739Z 2118/2218 07006KT P6SM SCT040 SCT100
     FM212300 06007KT P6SM VCTS SCT060CB BKN090
     FM220400 04008KT P6SM FEW050 BKN100
     FM220700 05009KT P6SM -SHRA VCTS FEW040 SCT070CB OVC120
     FM221200 06010KT P6SM VCSH SCT050 BKN080
      AMD LTD TO CLD AND VIS=



000
FTUS46 KOTX 211739
TAFGEG
TAF
KGEG 211739Z 2118/2218 14006KT P6SM FEW040 SCT100
     FM212300 06004KT P6SM VCTS SCT060CB BKN090
     FM220400 09005KT P6SM FEW050 BKN100
     FM220700 07004KT P6SM -SHRA VCTS FEW040 SCT070CB OVC120
     FM221200 06005KT P6SM VCSH SCT050 BKN080=



000
FTUS46 KOTX 211739
TAFPUW
TAF
KPUW 211739Z 2118/2218 27006KT P6SM SCT070 SCT200
     FM220700 VRB04KT P6SM VCSH SCT060 SCT200=



000
FTUS46 KOTX 211739
TAFMWH
TAF
KMWH 211739Z 2118/2218 15006KT P6SM FEW070 SCT200
     FM212100 21008KT P6SM FEW080 SCT200
     FM220300 VRB04KT P6SM SCT080=



000
FTUS46 KOTX 211739
TAFLWS
TAF
KLWS 211739Z 2118/2218 31006KT P6SM SCT080 SCT200
     FM220700 10003KT P6SM VCSH SCT060 SCT200=



000
FTUS46 KOTX 211739
TAFSFF
TAF
KSFF 211739Z 2118/2218 15004KT P6SM FEW050 SCT100
     FM212300 13004KT P6SM VCTS SCT060CB BKN090
     FM220400 VRB03KT P6SM FEW050 BKN100
     FM220700 VRB03KT P6SM -SHRA VCTS FEW040 SCT070CB OVC120
     FM221200 05005KT P6SM VCSH SCT050 BKN080=



000
FTUS46 KOTX 211739
TAFCOE
TAF
KCOE 211739Z 2118/2218 07006KT P6SM SCT040 SCT100
     FM212300 06007KT P6SM VCTS SCT060CB BKN090
     FM220400 04008KT P6SM FEW050 BKN100
     FM220700 05009KT P6SM -SHRA VCTS FEW040 SCT070CB OVC120
     FM221200 06010KT P6SM VCSH SCT050 BKN080
      AMD LTD TO CLD AND VIS=



000
FTUS46 KOTX 211739
TAFEAT
TAF
KEAT 211739Z 2118/2218 32008KT P6SM FEW100
     FM212100 13006KT P6SM FEW080 SCT120
     FM212300 VRB05KT P6SM VCTS FEW080CB BKN120
     FM220300 31009KT P6SM -SHRA SCT060 BKN080=



000
FTUS46 KOTX 211150 CCA
TAFEAT
TAF COR
KEAT 211150Z 2112/2212 32012KT P6SM FEW100
     FM212100 13006KT P6SM FEW080 SCT120
     FM212300 VRB05KT P6SM VCTS FEW080CB BKN120
     FM220300 31009KT P6SM -SHRA SCT060 BKN080=



000
FTUS46 KOTX 211150 CCA
TAFMWH
TAF COR
KMWH 211150Z 2112/2212 07008KT P6SM FEW100
     FM211600 17006KT P6SM FEW070 SCT200
     FM212100 21008KT P6SM FEW080 SCT200
     FM220300 VRB04KT P6SM SCT080=



000
FTUS46 KOTX 211150 CCA
TAFMWH
TAF COR
KMWH 211150Z 2112/2212 07008KT P6SM FEW100
     FM211600 17006KT P6SM FEW070 SCT200
     FM212100 21008KT P6SM FEW080 SCT200
     FM220300 VRB04KT P6SM SCT080=



000
FTUS46 KOTX 211150 CCA
TAFEAT
TAF COR
KEAT 211150Z 2112/2212 32012KT P6SM FEW100
     FM212100 13006KT P6SM FEW080 SCT120
     FM212300 VRB05KT P6SM VCTS FEW080CB BKN120
     FM220300 31009KT P6SM -SHRA SCT060 BKN080=



000
FTUS46 KOTX 211139
TAFLWS
TAF
KLWS 211139Z 2112/2212 00000KT P6SM SKC
     FM211500 06004KT P6SM FEW100
     FM212100 33006KT P6SM FEW090 FEW200
     FM220700 10003KT P6SM VCSH SCT060 SCT200=



000
FTUS46 KOTX 211139
TAFMWH
TAF
KMWH 211139Z 2112/2212 07008KT P6SM SKC
     FM211500 15004KT P6SM FEW070
     FM212100 21008KT P6SM FEW080 SCT200
     FM220300 23006KT P6SM SKC=



000
FTUS46 KOTX 211139
TAFEAT
TAF
KEAT 211139Z 2112/2212 33012KT P6SM SKC
     FM211800 25004KT P6SM FEW070 SCT200
     FM212100 13006KT P6SM FEW080 SCT120
     FM220100 31012KT P6SM FEW120=



000
FTUS46 KOTX 211139
TAFCOE
TAF

AMD L
 TD TO CLD AND VIS=



000
FTUS46 KOTX 211139
TAFCOE
TAF
KCOE 211139Z 2112/2212 04006KT P6SM FEW110 SCT150
     FM212100 05006KT P6SM VCSH SCT060 BKN100
     FM212200 06007KT P6SM VCTS SCT060CB BKN090
     FM220600 07009KT P6SM -SHRA BKN080 OVC120=



000
FTUS46 KOTX 211139
TAFSFF
TAF
KSFF 211139Z 2112/2212 08003KT P6SM FEW120 SCT150
     FM211800 14003KT P6SM SCT060 BKN120
     FM212300 06003KT P6SM VCTS SCT060CB BKN090
     FM220600 07002KT P6SM -SHRA BKN080 OVC120=



000
FTUS46 KOTX 211139
TAFGEG
TAF
KGEG 211139Z 2112/2212 09006KT P6SM FEW110 SCT150
     FM211800 14006KT P6SM SCT060 BKN120
     FM212300 06004KT P6SM VCTS SCT060CB BKN090
     FM220600 07004KT P6SM -SHRA BKN080 OVC120=



000
FTUS46 KOTX 211139
TAFPUW
TAF
KPUW 211139Z 2112/2212 00000KT P6SM OVC100
     FM211800 27006KT P6SM FEW070 FEW200
     FM220700 10003KT P6SM VCSH SCT060 SCT200=



000
FTUS46 KOTX 211139
TAFMWH
TAF
KMWH 211139Z 2112/2212 07008KT P6SM SKC
     FM211500 15004KT P6SM FEW070
     FM212100 21008KT P6SM FEW080 SCT200
     FM220300 23006KT P6SM SKC=



000
FTUS46 KOTX 211139
TAFCOE
TAF
KCOE 211139Z 2112/2212 04006KT P6SM FEW110 SCT150
     FM212100 05006KT P6SM VCSH SCT060 BKN100
     FM212200 06007KT P6SM VCTS SCT060CB BKN090
     FM220600 07009KT P6SM -SHRA BKN080 OVC120=



000
FTUS46 KOTX 211139
TAFCOE
TAF

AMD L
 TD TO CLD AND VIS=



000
FTUS46 KOTX 211139
TAFLWS
TAF
KLWS 211139Z 2112/2212 00000KT P6SM SKC
     FM211500 06004KT P6SM FEW100
     FM212100 33006KT P6SM FEW090 FEW200
     FM220700 10003KT P6SM VCSH SCT060 SCT200=



000
FTUS46 KOTX 211139
TAFEAT
TAF
KEAT 211139Z 2112/2212 33012KT P6SM SKC
     FM211800 25004KT P6SM FEW070 SCT200
     FM212100 13006KT P6SM FEW080 SCT120
     FM220100 31012KT P6SM FEW120=



000
FTUS46 KOTX 211139
TAFGEG
TAF
KGEG 211139Z 2112/2212 09006KT P6SM FEW110 SCT150
     FM211800 14006KT P6SM SCT060 BKN120
     FM212300 06004KT P6SM VCTS SCT060CB BKN090
     FM220600 07004KT P6SM -SHRA BKN080 OVC120=



000
FTUS46 KOTX 211139
TAFSFF
TAF
KSFF 211139Z 2112/2212 08003KT P6SM FEW120 SCT150
     FM211800 14003KT P6SM SCT060 BKN120
     FM212300 06003KT P6SM VCTS SCT060CB BKN090
     FM220600 07002KT P6SM -SHRA BKN080 OVC120=



000
FTUS46 KOTX 211139
TAFPUW
TAF
KPUW 211139Z 2112/2212 00000KT P6SM OVC100
     FM211800 27006KT P6SM FEW070 FEW200
     FM220700 10003KT P6SM VCSH SCT060 SCT200=



000
FTUS46 KOTX 210535
TAFEAT
TAF
KEAT 210535Z 2106/2206 30010KT P6SM SKC
     FM211800 25004KT P6SM FEW070 SCT200
     FM212100 13006KT P6SM FEW080 SCT120
     FM220100 31012KT P6SM FEW120=



000
FTUS46 KOTX 210535
TAFCOE
TAF
KCOE 210535Z 2106/2206 01008KT P6SM VCSH SCT080 BKN120
     FM210900 10005KT P6SM SCT080 BKN120
     FM211800 06006KT P6SM SCT050 SCT080 BKN120
     FM220000 03008KT P6SM VCSH SCT060 BKN100
      AMD LTD TO CLD AND VIS=



000
FTUS46 KOTX 210535
TAFMWH
TAF
KMWH 210535Z 2106/2206 28004KT P6SM SKC
     FM211500 15004KT P6SM FEW070
     FM212100 21008KT P6SM FEW080 SCT200
     FM220300 23006KT P6SM SKC=



000
FTUS46 KOTX 210535
TAFGEG
TAF
KGEG 210535Z 2106/2206 11004KT P6SM VCSH SCT080 BKN200
     FM210900 16006KT P6SM SCT100 SCT200
     FM211800 18006KT P6SM SCT060 BKN120
     FM220000 05005KT P6SM VCSH SCT080 BKN100=



000
FTUS46 KOTX 210535
TAFLWS
TAF
KLWS 210535Z 2106/2206 VRB03KT P6SM SCT150
     FM210900 15003KT P6SM FEW150
     FM211500 06004KT P6SM FEW100
     FM212100 33006KT P6SM FEW090 FEW200=



000
FTUS46 KOTX 210535
TAFPUW
TAF
KPUW 210535Z 2106/2206 27003KT P6SM SCT150
     FM211800 27006KT P6SM FEW070 FEW200
     FM220000 30007KT P6SM SCT090 SCT200=



000
FTUS46 KOTX 210535
TAFEAT
TAF
KEAT 210535Z 2106/2206 30010KT P6SM SKC
     FM211800 25004KT P6SM FEW070 SCT200
     FM212100 13006KT P6SM FEW080 SCT120
     FM220100 31012KT P6SM FEW120=



000
FTUS46 KOTX 210535
TAFPUW
TAF
KPUW 210535Z 2106/2206 27003KT P6SM SCT150
     FM211800 27006KT P6SM FEW070 FEW200
     FM220000 30007KT P6SM SCT090 SCT200=



000
FTUS46 KOTX 210535
TAFGEG
TAF
KGEG 210535Z 2106/2206 11004KT P6SM VCSH SCT080 BKN200
     FM210900 16006KT P6SM SCT100 SCT200
     FM211800 18006KT P6SM SCT060 BKN120
     FM220000 05005KT P6SM VCSH SCT080 BKN100=



000
FTUS46 KOTX 210535
TAFLWS
TAF
KLWS 210535Z 2106/2206 VRB03KT P6SM SCT150
     FM210900 15003KT P6SM FEW150
     FM211500 06004KT P6SM FEW100
     FM212100 33006KT P6SM FEW090 FEW200=



000
FTUS46 KOTX 210535
TAFMWH
TAF
KMWH 210535Z 2106/2206 28004KT P6SM SKC
     FM211500 15004KT P6SM FEW070
     FM212100 21008KT P6SM FEW080 SCT200
     FM220300 23006KT P6SM SKC=



000
FTUS46 KOTX 210535
TAFSFF
TAF
KSFF 210535Z 2106/2206 VRB02KT P6SM VCSH SCT080 BKN110 BKN200
     FM210900 VRB02KT P6SM SCT100 SCT200
     FM211800 17004KT P6SM SCT060 BKN120
     FM220000 04003KT P6SM VCSH SCT080 BKN110=



000
FTUS46 KOTX 210535
TAFSFF
TAF
KSFF 210535Z 2106/2206 VRB02KT P6SM VCSH SCT080 BKN110 BKN200
     FM210900 VRB02KT P6SM SCT100 SCT200
     FM211800 17004KT P6SM SCT060 BKN120
     FM220000 04003KT P6SM VCSH SCT080 BKN110=



000
FTUS46 KOTX 210535
TAFCOE
TAF
KCOE 210535Z 2106/2206 01008KT P6SM VCSH SCT080 BKN120
     FM210900 10005KT P6SM SCT080 BKN120
     FM211800 06006KT P6SM SCT050 SCT080 BKN120
     FM220000 03008KT P6SM VCSH SCT060 BKN100
      AMD LTD TO CLD AND VIS=



000
FTUS46 KOTX 210059 AAA
TAFSFF
TAF AMD
KSFF 210059Z 2101/2124 25007G15KT P6SM VCTS SCT060CB BKN200
      TEMPO 2101/2102 32015G25KT 6SM TSRA BKN060CB
     FM210400 VRB03KT P6SM VCSH SCT080 BKN120
     FM210700 VRB03KT P6SM SCT100
     FM211200 20004KT P6SM FEW060 SCT100
     FM211800 18005KT P6SM SCT060 BKN120=



000
FTUS46 KOTX 210059 AAA
TAFSFF
TAF AMD
KSFF 210059Z 2101/2124 25007G15KT P6SM VCTS SCT060CB BKN200
      TEMPO 2101/2102 32015G25KT 6SM TSRA BKN060CB
     FM210400 VRB03KT P6SM VCSH SCT080 BKN120
     FM210700 VRB03KT P6SM SCT100
     FM211200 20004KT P6SM FEW060 SCT100
     FM211800 18005KT P6SM SCT060 BKN120=



000
FTUS46 KOTX 210031 AAA
TAFGEG
TAF AMD
KGEG 210031Z 2101/2124 23008G15KT P6SM VCTS SCT060CB BKN200
      TEMPO 2101/2102 32020G30KT 5SM TSRA BKN060CB
     FM210400 19006KT P6SM VCSH FEW080 SCT120
     FM210700 16006KT P6SM SCT100
     FM211200 18006KT P6SM FEW060 SCT100
     FM211800 18006KT P6SM SCT060 BKN120=



000
FTUS46 KOTX 210031 AAA
TAFGEG
TAF AMD
KGEG 210031Z 2101/2124 23008G15KT P6SM VCTS SCT060CB BKN200
      TEMPO 2101/2102 32020G30KT 5SM TSRA BKN060CB
     FM210400 19006KT P6SM VCSH FEW080 SCT120
     FM210700 16006KT P6SM SCT100
     FM211200 18006KT P6SM FEW060 SCT100
     FM211800 18006KT P6SM SCT060 BKN120=



000
FTUS46 KOTX 202335
TAFMWH
TAF
KMWH 202335Z 2100/2124 23012G20KT P6SM FEW100
     FM210600 28004KT P6SM SKC
     FM211500 15004KT P6SM FEW070
     FM212100 22008KT P6SM FEW080 SCT120=



000
FTUS46 KOTX 202335
TAFPUW
TAF
KPUW 202335Z 2100/2124 26012G20KT P6SM FEW060 SCT200
     FM210300 27003KT P6SM SCT150
     FM211700 27006KT P6SM FEW070 FEW200=



000
FTUS46 KOTX 202335
TAFSFF
TAF
KSFF 202335Z 2100/2124 25007G15KT P6SM VCTS SCT060CB BKN200
     FM210400 VRB03KT P6SM VCSH SCT080 BKN120
     FM210700 VRB03KT P6SM SCT100
     FM211200 20004KT P6SM FEW060 SCT100
     FM211800 18005KT P6SM SCT060 BKN120=



000
FTUS46 KOTX 202335
TAFGEG
TAF
KGEG 202335Z 2100/2124 23008G15KT P6SM VCTS SCT060CB BKN200
     FM210400 19006KT P6SM VCSH FEW080 SCT120
     FM210700 16006KT P6SM SCT100
     FM211200 18006KT P6SM FEW060 SCT100
     FM211800 18006KT P6SM SCT060 BKN120=



000
FTUS46 KOTX 202335
TAFEAT
TAF
KEAT 202335Z 2100/2124 30017G25KT P6SM FEW100 SCT200
     FM210500 30011KT P6SM SKC
     FM212100 13006KT P6SM FEW100 SCT120=



000
FTUS46 KOTX 202335
TAFLWS
TAF
KLWS 202335Z 2100/2124 32011G20KT P6SM FEW090 SCT100 BKN150
     FM210300 VRB04KT P6SM FEW080 SCT150
     FM210900 15004KT P6SM FEW150
     FM211500 06004KT P6SM FEW100
     FM212100 33005KT P6SM FEW090 FEW200=



000
FTUS46 KOTX 202335
TAFCOE
TAF
KCOE 202335Z 2100/2124 22012G19KT P6SM VCTS SCT060CB BKN100 BKN200
     FM210500 11005KT P6SM VCSH SCT080 BKN150
     FM210900 12005KT P6SM BKN080 BKN120
     FM211500 VRB06KT P6SM SCT050 SCT080 BKN120
      AMD LTD TO CLD AND VIS=



000
FTUS46 KOTX 202335
TAFMWH
TAF
KMWH 202335Z 2100/2124 23012G20KT P6SM FEW100
     FM210600 28004KT P6SM SKC
     FM211500 15004KT P6SM FEW070
     FM212100 22008KT P6SM FEW080 SCT120=



000
FTUS46 KOTX 202335
TAFSFF
TAF
KSFF 202335Z 2100/2124 25007G15KT P6SM VCTS SCT060CB BKN200
     FM210400 VRB03KT P6SM VCSH SCT080 BKN120
     FM210700 VRB03KT P6SM SCT100
     FM211200 20004KT P6SM FEW060 SCT100
     FM211800 18005KT P6SM SCT060 BKN120=



000
FTUS46 KOTX 202335
TAFLWS
TAF
KLWS 202335Z 2100/2124 32011G20KT P6SM FEW090 SCT100 BKN150
     FM210300 VRB04KT P6SM FEW080 SCT150
     FM210900 15004KT P6SM FEW150
     FM211500 06004KT P6SM FEW100
     FM212100 33005KT P6SM FEW090 FEW200=



000
FTUS46 KOTX 202335
TAFPUW
TAF
KPUW 202335Z 2100/2124 26012G20KT P6SM FEW060 SCT200
     FM210300 27003KT P6SM SCT150
     FM211700 27006KT P6SM FEW070 FEW200=



000
FTUS46 KOTX 202335
TAFCOE
TAF
KCOE 202335Z 2100/2124 22012G19KT P6SM VCTS SCT060CB BKN100 BKN200
     FM210500 11005KT P6SM VCSH SCT080 BKN150
     FM210900 12005KT P6SM BKN080 BKN120
     FM211500 VRB06KT P6SM SCT050 SCT080 BKN120
      AMD LTD TO CLD AND VIS=



000
FTUS46 KOTX 202335
TAFEAT
TAF
KEAT 202335Z 2100/2124 30017G25KT P6SM FEW100 SCT200
     FM210500 30011KT P6SM SKC
     FM212100 13006KT P6SM FEW100 SCT120=



000
FTUS46 KOTX 202335
TAFGEG
TAF
KGEG 202335Z 2100/2124 23008G15KT P6SM VCTS SCT060CB BKN200
     FM210400 19006KT P6SM VCSH FEW080 SCT120
     FM210700 16006KT P6SM SCT100
     FM211200 18006KT P6SM FEW060 SCT100
     FM211800 18006KT P6SM SCT060 BKN120=



000
FTUS46 KOTX 201738
TAFSFF
TAF
KSFF 201738Z 2018/2118 24007KT P6SM SCT050 BKN100
     FM210130 23006G12KT P6SM VCTS SCT060CB BKN090 BKN150
     FM210500 VRB03KT P6SM VCSH BKN080 OVC150
     FM210800 VRB03KT P6SM SCT100=



000
FTUS46 KOTX 201738
TAFMWH
TAF
KMWH 201738Z 2018/2118 24006KT P6SM SCT200
     FM202200 23010KT P6SM FEW200
     FM210600 27004KT P6SM SKC=



000
FTUS46 KOTX 201738
TAFPUW
TAF
KPUW 201738Z 2018/2118 25012KT P6SM SCT050 BKN200
     FM210300 VRB03KT P6SM SCT150
     FM211600 27006KT P6SM SCT200=



000
FTUS46 KOTX 201738
TAFSFF
TAF
KSFF 201738Z 2018/2118 24007KT P6SM SCT050 BKN100
     FM210130 23006G12KT P6SM VCTS SCT060CB BKN090 BKN150
     FM210500 VRB03KT P6SM VCSH BKN080 OVC150
     FM210800 VRB03KT P6SM SCT100=



000
FTUS46 KOTX 201738
TAFLWS
TAF
KLWS 201738Z 2018/2118 08006KT P6SM FEW050 SCT080 BKN100
     FM202000 33007KT P6SM SCT080 BKN120
     FM210300 VRB04KT P6SM SCT200=



000
FTUS46 KOTX 201738
TAFGEG
TAF
KGEG 201738Z 2018/2118 23012KT P6SM SCT060 BKN100
     FM210100 23007G14KT P6SM VCTS SCT060CB BKN090 BKN150
     FM210500 19006KT P6SM VCSH SCT080 BKN150
     FM210800 16006KT P6SM SCT100=



000
FTUS46 KOTX 201738
TAFCOE
TAF
KCOE 201738Z 2018/2118 19009G15KT P6SM SCT040 BKN100
     FM202200 23010KT P6SM SCT050 BKN100
     FM210130 24008G14KT P6SM VCTS SCT060CB BKN090 BKN150
     FM210600 12006KT P6SM VCSH BKN080 OVC150
     FM210900 16006KT P6SM SCT080
      AMD LTD TO CLD AND VIS=



000
FTUS46 KOTX 201738
TAFGEG
TAF
KGEG 201738Z 2018/2118 23012KT P6SM SCT060 BKN100
     FM210100 23007G14KT P6SM VCTS SCT060CB BKN090 BKN150
     FM210500 19006KT P6SM VCSH SCT080 BKN150
     FM210800 16006KT P6SM SCT100=



000
FTUS46 KOTX 201738
TAFMWH
TAF
KMWH 201738Z 2018/2118 24006KT P6SM SCT200
     FM202200 23010KT P6SM FEW200
     FM210600 27004KT P6SM SKC=



000
FTUS46 KOTX 201738
TAFEAT
TAF
KEAT 201738Z 2018/2118 29008KT P6SM SCT150
     FM210000 30017G25KT P6SM SKC
     FM210500 30011KT P6SM SKC=



000
FTUS46 KOTX 201738
TAFEAT
TAF
KEAT 201738Z 2018/2118 29008KT P6SM SCT150
     FM210000 30017G25KT P6SM SKC
     FM210500 30011KT P6SM SKC=



000
FTUS46 KOTX 201738
TAFPUW
TAF
KPUW 201738Z 2018/2118 25012KT P6SM SCT050 BKN200
     FM210300 VRB03KT P6SM SCT150
     FM211600 27006KT P6SM SCT200=



000
FTUS46 KOTX 201738
TAFLWS
TAF
KLWS 201738Z 2018/2118 08006KT P6SM FEW050 SCT080 BKN100
     FM202000 33007KT P6SM SCT080 BKN120
     FM210300 VRB04KT P6SM SCT200=



000
FTUS46 KOTX 201738
TAFCOE
TAF
KCOE 201738Z 2018/2118 19009G15KT P6SM SCT040 BKN100
     FM202200 23010KT P6SM SCT050 BKN100
     FM210130 24008G14KT P6SM VCTS SCT060CB BKN090 BKN150
     FM210600 12006KT P6SM VCSH BKN080 OVC150
     FM210900 16006KT P6SM SCT080
      AMD LTD TO CLD AND VIS=



000
FTUS46 KOTX 201144 CCA
TAFEAT
TAF COR
KEAT 201144Z 2012/2112 29011KT P6SM SCT150
     FM210000 30017G25KT P6SM SKC
     FM210500 30011KT P6SM SKC=



000
FTUS46 KOTX 201144 CCA
TAFEAT
TAF COR
KEAT 201144Z 2012/2112 29011KT P6SM SCT150
     FM210000 30017G25KT P6SM SKC
     FM210500 30011KT P6SM SKC=



000
FTUS46 KOTX 201139
TAFEAT
TAF
KEAT 201139Z 2012/2112 29011KT P6SM SKC
     FM202100 29008KT P6SM SKC
     FM210000 30014KT P6SM SKC=



000
FTUS46 KOTX 201139
TAFSFF
TAF
KSFF 201139Z 2012/2112 00000KT P6SM SCT090
     FM201600 21007KT P6SM BKN200
     FM202200 23006G12KT P6SM VCTS BKN090CB BKN200
     FM210300 21003KT P6SM VCSH BKN080 OVC150=



000
FTUS46 KOTX 201139
TAFPUW
TAF
KPUW 201139Z 2012/2112 25010G18KT P6SM VCSH BKN110
     FM201800 26011G18KT P6SM FEW120 BKN200
     FM210200 24004KT P6SM SCT200=



000
FTUS46 KOTX 201139
TAFMWH
TAF
KMWH 201139Z 2012/2112 24006KT P6SM FEW080
     FM202100 23010KT P6SM SKC
     FM210800 26004KT P6SM SKC=



000
FTUS46 KOTX 201139
TAFLWS
TAF
KLWS 201139Z 2012/2112 00000KT P6SM -SHRA VCTS BKN100CB BKN120
     FM201300 32007KT P6SM SCT090 BKN150
     FM210300 VRB04KT P6SM SCT200=



000
FTUS46 KOTX 201139
TAFCOE
TAF
KCOE 201139Z 2012/2112 15006KT P6SM VCSH BKN090 BKN110
     FM201500 21009KT P6SM SCT120 BKN200
     FM202200 23007G14KT P6SM VCTS BKN090CB BKN200
     FM210500 21006KT P6SM VCSH BKN080 OVC150
      AMD LTD TO CLD AND VIS=



000
FTUS46 KOTX 201139
TAFGEG
TAF
KGEG 201139Z 2012/2112 19006KT P6SM FEW080 FEW110 FEW250
     FM201500 21009KT P6SM SCT120 BKN200
     FM202200 23007G14KT P6SM VCTS BKN090CB BKN200
     FM210300 21006KT P6SM VCSH BKN080 OVC150=



000
FTUS46 KOTX 201139
TAFGEG
TAF
KGEG 201139Z 2012/2112 19006KT P6SM FEW080 FEW110 FEW250
     FM201500 21009KT P6SM SCT120 BKN200
     FM202200 23007G14KT P6SM VCTS BKN090CB BKN200
     FM210300 21006KT P6SM VCSH BKN080 OVC150=



000
FTUS46 KOTX 201139
TAFMWH
TAF
KMWH 201139Z 2012/2112 24006KT P6SM FEW080
     FM202100 23010KT P6SM SKC
     FM210800 26004KT P6SM SKC=



000
FTUS46 KOTX 201139
TAFCOE
TAF
KCOE 201139Z 2012/2112 15006KT P6SM VCSH BKN090 BKN110
     FM201500 21009KT P6SM SCT120 BKN200
     FM202200 23007G14KT P6SM VCTS BKN090CB BKN200
     FM210500 21006KT P6SM VCSH BKN080 OVC150
      AMD LTD TO CLD AND VIS=



000
FTUS46 KOTX 201139
TAFLWS
TAF
KLWS 201139Z 2012/2112 00000KT P6SM -SHRA VCTS BKN100CB BKN120
     FM201300 32007KT P6SM SCT090 BKN150
     FM210300 VRB04KT P6SM SCT200=



000
FTUS46 KOTX 201139
TAFPUW
TAF
KPUW 201139Z 2012/2112 25010G18KT P6SM VCSH BKN110
     FM201800 26011G18KT P6SM FEW120 BKN200
     FM210200 24004KT P6SM SCT200=



000
FTUS46 KOTX 201139
TAFEAT
TAF
KEAT 201139Z 2012/2112 29011KT P6SM SKC
     FM202100 29008KT P6SM SKC
     FM210000 30014KT P6SM SKC=



000
FTUS46 KOTX 201139
TAFSFF
TAF
KSFF 201139Z 2012/2112 00000KT P6SM SCT090
     FM201600 21007KT P6SM BKN200
     FM202200 23006G12KT P6SM VCTS BKN090CB BKN200
     FM210300 21003KT P6SM VCSH BKN080 OVC150=



000
FTUS46 KOTX 201026 AAA
TAFLWS
TAF AMD
KLWS 201026Z 2010/2106 00000KT P6SM -SHRA VCTS FEW090CB BKN110
     FM201300 32007KT P6SM BKN150
     FM210300 VRB04KT P6SM SCT200=



000
FTUS46 KOTX 201026 AAA
TAFPUW
TAF AMD
KPUW 201026Z 2010/2106 25008KT P6SM VCSH SCT110
     FM201800 26011KT P6SM BKN200
     FM210200 24004KT P6SM SCT200=



000
FTUS46 KOTX 201026 AAA
TAFPUW
TAF AMD
KPUW 201026Z 2010/2106 25008KT P6SM VCSH SCT110
     FM201800 26011KT P6SM BKN200
     FM210200 24004KT P6SM SCT200=



000
FTUS46 KOTX 201026 AAA
TAFLWS
TAF AMD
KLWS 201026Z 2010/2106 00000KT P6SM -SHRA VCTS FEW090CB BKN110
     FM201300 32007KT P6SM BKN150
     FM210300 VRB04KT P6SM SCT200=



000
FTUS46 KOTX 200530
TAFMWH
TAF
KMWH 200530Z 2006/2106 28012KT P6SM SKC
     FM200800 25008KT P6SM SKC
     FM202100 22010KT P6SM SKC=



000
FTUS46 KOTX 200530
TAFEAT
TAF
KEAT 200530Z 2006/2106 30010KT P6SM SKC
     FM202100 29008KT P6SM SKC
     FM210000 30014KT P6SM SKC=



000
FTUS46 KOTX 200530
TAFCOE
TAF
KCOE 200530Z 2006/2106 07004KT P6SM VCSH SCT100 BKN200
     FM201200 19008KT P6SM BKN200
     FM210000 15005G11KT P6SM VCTS BKN100CB BKN200
      AMD LTD TO CLD AND VIS=



000
FTUS46 KOTX 200530
TAFPUW
TAF
KPUW 200530Z 2006/2106 VRB03KT P6SM SCT100 SCT200
     FM201800 26011KT P6SM BKN200
     FM210200 24004KT P6SM SCT200=



000
FTUS46 KOTX 200530
TAFSFF
TAF
KSFF 200530Z 2006/2106 VRB03KT P6SM SCT090 SCT200
     FM201600 21007KT P6SM BKN200
     FM210000 27004G10KT P6SM VCTS BKN100CB BKN200=



000
FTUS46 KOTX 200530
TAFGEG
TAF
KGEG 200530Z 2006/2106 VRB04KT P6SM FEW070 SCT090 SCT200
     FM201500 21009KT P6SM BKN200
     FM210000 23007G14KT P6SM VCTS BKN090CB BKN200=



000
FTUS46 KOTX 200530
TAFLWS
TAF
KLWS 200530Z 2006/2106 14004KT P6SM SCT100 SCT200
     FM200800 VRB04KT P6SM VCSH SCT100 BKN200
     FM201800 32007KT P6SM BKN150
     FM210300 VRB04KT P6SM SCT200=



000
FTUS46 KOTX 200530
TAFGEG
TAF
KGEG 200530Z 2006/2106 VRB04KT P6SM FEW070 SCT090 SCT200
     FM201500 21009KT P6SM BKN200
     FM210000 23007G14KT P6SM VCTS BKN090CB BKN200=



000
FTUS46 KOTX 200530
TAFEAT
TAF
KEAT 200530Z 2006/2106 30010KT P6SM SKC
     FM202100 29008KT P6SM SKC
     FM210000 30014KT P6SM SKC=



000
FTUS46 KOTX 200530
TAFLWS
TAF
KLWS 200530Z 2006/2106 14004KT P6SM SCT100 SCT200
     FM200800 VRB04KT P6SM VCSH SCT100 BKN200
     FM201800 32007KT P6SM BKN150
     FM210300 VRB04KT P6SM SCT200=



000
FTUS46 KOTX 200530
TAFPUW
TAF
KPUW 200530Z 2006/2106 VRB03KT P6SM SCT100 SCT200
     FM201800 26011KT P6SM BKN200
     FM210200 24004KT P6SM SCT200=



000
FTUS46 KOTX 200530
TAFMWH
TAF
KMWH 200530Z 2006/2106 28012KT P6SM SKC
     FM200800 25008KT P6SM SKC
     FM202100 22010KT P6SM SKC=



000
FTUS46 KOTX 200530
TAFCOE
TAF
KCOE 200530Z 2006/2106 07004KT P6SM VCSH SCT100 BKN200
     FM201200 19008KT P6SM BKN200
     FM210000 15005G11KT P6SM VCTS BKN100CB BKN200
      AMD LTD TO CLD AND VIS=



000
FTUS46 KOTX 200530
TAFSFF
TAF
KSFF 200530Z 2006/2106 VRB03KT P6SM SCT090 SCT200
     FM201600 21007KT P6SM BKN200
     FM210000 27004G10KT P6SM VCTS BKN100CB BKN200=



000
FTUS46 KOTX 200421 AAB
TAFCOE
TAF AMD
KCOE 200421Z 2004/2024 11005KT P6SM SCT120 SCT200
     FM200600 16008KT P6SM SCT120
     FM201800 22007KT P6SM BKN200
      AMD LTD TO CLD AND VIS=



000
FTUS46 KOTX 200421 AAB
TAFCOE
TAF AMD
KCOE 200421Z 2004/2024 11005KT P6SM SCT120 SCT200
     FM200600 16008KT P6SM SCT120
     FM201800 22007KT P6SM BKN200
      AMD LTD TO CLD AND VIS=



000
FTUS46 KOTX 200420 AAB
TAFLWS
TAF AMD
KLWS 200420Z 2004/2024 28005KT P6SM SKC
     FM202100 32007KT P6SM SCT200=



000
FTUS46 KOTX 200420 AAB
TAFLWS
TAF AMD
KLWS 200420Z 2004/2024 28005KT P6SM SKC
     FM202100 32007KT P6SM SCT200=



000
FTUS46 KOTX 200229 AAA
TAFLWS
TAF AMD
KLWS 200229Z 2002/2024 30012G20KT P6SM SKC
     FM200600 31005KT P6SM SKC
     FM202100 32007KT P6SM SCT200=



000
FTUS46 KOTX 200229 AAA
TAFLWS
TAF AMD
KLWS 200229Z 2002/2024 30012G20KT P6SM SKC
     FM200600 31005KT P6SM SKC
     FM202100 32007KT P6SM SCT200=



000
FTUS46 KOTX 200228 AAA
TAFGEG
TAF AMD
KGEG 200228Z 2002/2024 08005KT P6SM VCSH FEW070 BKN090 BKN200
     FM200600 22008KT P6SM SCT120
     FM201800 21011KT P6SM BKN200=



000
FTUS46 KOTX 200228 AAA
TAFGEG
TAF AMD
KGEG 200228Z 2002/2024 08005KT P6SM VCSH FEW070 BKN090 BKN200
     FM200600 22008KT P6SM SCT120
     FM201800 21011KT P6SM BKN200=



000
FTUS46 KOTX 200227 AAA
TAFCOE
TAF AMD
KCOE 200227Z 2002/2024 09015G25KT P6SM SCT100
     FM200600 16008KT P6SM SCT120
     FM201800 22007KT P6SM BKN200
      AMD LTD TO CLD AND VIS=



000
FTUS46 KOTX 200227 AAA
TAFCOE
TAF AMD
KCOE 200227Z 2002/2024 09015G25KT P6SM SCT100
     FM200600 16008KT P6SM SCT120
     FM201800 22007KT P6SM BKN200
      AMD LTD TO CLD AND VIS=



000
FTUS46 KOTX 192323
TAFEAT
TAF
KEAT 192323Z 2000/2024 31019G25KT P6SM FEW110 SCT150
     FM200500 30011KT P6SM SKC
     FM202100 30009KT P6SM SKC=



000
FTUS46 KOTX 192323
TAFMWH
TAF
KMWH 192323Z 2000/2024 28011KT P6SM VCSH FEW100 SCT150
     FM200400 27006KT P6SM SKC
     FM202100 22009KT P6SM SKC=



000
FTUS46 KOTX 192323
TAFCOE
TAF
KCOE 192323Z 2000/2024 07005KT P6SM VCTS FEW070 SCT090CB BKN200
      TEMPO 2000/2002 27006G15KT -TSRA BKN070 BKN090CB
     FM200200 20008KT P6SM SCT100
     FM200600 16008KT P6SM SCT120
     FM201800 22007KT P6SM BKN200
      AMD LTD TO CLD AND VIS=



000
FTUS46 KOTX 192323
TAFSFF
TAF
KSFF 192323Z 2000/2024 26005G15KT P6SM VCTS FEW060 SCT090CB BKN200
      TEMPO 2000/2002 -TSRA SCT060 BKN090CB
     FM200200 23009KT P6SM SCT100
     FM200600 22003KT P6SM SCT120
     FM201800 21006KT P6SM BKN200=



000
FTUS46 KOTX 192323
TAFGEG
TAF
KGEG 192323Z 2000/2024 27007G16KT P6SM VCTS FEW060 SCT090CB BKN200
      TEMPO 2000/2002 -TSRA SCT060 BKN090CB
     FM200200 23011G18KT P6SM SCT100
     FM200600 22008KT P6SM SCT120
     FM201800 21011KT P6SM BKN200=



000
FTUS46 KOTX 192323
TAFCOE
TAF
KCOE 192323Z 2000/2024 07005KT P6SM VCTS FEW070 SCT090CB BKN200
      TEMPO 2000/2002 27006G15KT -TSRA BKN070 BKN090CB
     FM200200 20008KT P6SM SCT100
     FM200600 16008KT P6SM SCT120
     FM201800 22007KT P6SM BKN200
      AMD LTD TO CLD AND VIS=



000
FTUS46 KOTX 192323
TAFSFF
TAF
KSFF 192323Z 2000/2024 26005G15KT P6SM VCTS FEW060 SCT090CB BKN200
      TEMPO 2000/2002 -TSRA SCT060 BKN090CB
     FM200200 23009KT P6SM SCT100
     FM200600 22003KT P6SM SCT120
     FM201800 21006KT P6SM BKN200=



000
FTUS46 KOTX 192323
TAFLWS
TAF
KLWS 192323Z 2000/2024 30016G23KT P6SM BKN150
     FM200200 31008KT P6SM SCT150
     FM200600 VRB04KT P6SM SKC
     FM202100 32007KT P6SM SCT200=



000
FTUS46 KOTX 192323
TAFEAT
TAF
KEAT 192323Z 2000/2024 31019G25KT P6SM FEW110 SCT150
     FM200500 30011KT P6SM SKC
     FM202100 30009KT P6SM SKC=



000
FTUS46 KOTX 192323
TAFMWH
TAF
KMWH 192323Z 2000/2024 28011KT P6SM VCSH FEW100 SCT150
     FM200400 27006KT P6SM SKC
     FM202100 22009KT P6SM SKC=



000
FTUS46 KOTX 192323
TAFPUW
TAF
KPUW 192323Z 2000/2024 27011G18KT P6SM BKN150
     FM200200 25006KT P6SM FEW120
     FM201800 26009KT P6SM BKN200=



000
FTUS46 KOTX 192323
TAFGEG
TAF
KGEG 192323Z 2000/2024 27007G16KT P6SM VCTS FEW060 SCT090CB BKN200
      TEMPO 2000/2002 -TSRA SCT060 BKN090CB
     FM200200 23011G18KT P6SM SCT100
     FM200600 22008KT P6SM SCT120
     FM201800 21011KT P6SM BKN200=



000
FTUS46 KOTX 192323
TAFPUW
TAF
KPUW 192323Z 2000/2024 27011G18KT P6SM BKN150
     FM200200 25006KT P6SM FEW120
     FM201800 26009KT P6SM BKN200=



000
FTUS46 KOTX 192323
TAFLWS
TAF
KLWS 192323Z 2000/2024 30016G23KT P6SM BKN150
     FM200200 31008KT P6SM SCT150
     FM200600 VRB04KT P6SM SKC
     FM202100 32007KT P6SM SCT200=



000
FTUS46 KOTX 192256 AAB
TAFCOE
TAF AMD
KCOE 192256Z 1923/2018 30008KT P6SM VCTS SCT070CB SCT100
     FM200200 27008G13KT P6SM SCT120
      AMD LTD TO CLD AND VIS=



000
FTUS46 KOTX 192254 AAB
TAFGEG
TAF AMD
KGEG 192254Z 1923/2018 23008KT P6SM VCTS SCT060CB SCT090 BKN200
     FM200200 23011G18KT P6SM SCT100
     FM200300 22010KT P6SM SCT120=



000
FTUS46 KOTX 192254 AAB
TAFSFF
TAF AMD
KSFF 192254Z 1923/2018 29005KT P6SM VCTS SCT070CB SCT100
     FM200200 23009G15KT P6SM SCT100
     FM200300 22005KT P6SM SCT120=



000
FTUS46 KOTX 192254 AAB
TAFSFF
TAF AMD
KSFF 192254Z 1923/2018 29005KT P6SM VCTS SCT070CB SCT100
     FM200200 23009G15KT P6SM SCT100
     FM200300 22005KT P6SM SCT120=



000
FTUS46 KOTX 192119 AAA
TAFSFF
TAF AMD
KSFF 192119Z 1921/2018 07005KT P6SM VCSH SCT080 BKN120
     FM192200 22006G15KT P6SM -TSRA BKN080CB BKN120
     FM200200 23009G15KT P6SM SCT100
     FM200300 22005KT P6SM SCT120=



000
FTUS46 KOTX 192119 AAA
TAFCOE
TAF AMD
KCOE 192119Z 1921/2018 04005KT P6SM VCSH SCT070 BKN120
     FM192200 22010G14KT P6SM -TSRA BKN080CB BKN120
     FM200200 17008KT P6SM SCT120
      AMD LTD TO CLD AND VIS=



000
FTUS46 KOTX 192119 AAA
TAFGEG
TAF AMD
KGEG 192119Z 1921/2018 34005KT P6SM VCSH SCT070 BKN120
     FM192200 22010G17KT P6SM -TSRA BKN070CB BKN120
     FM200200 23011G18KT P6SM SCT100
     FM200300 22010KT P6SM SCT120=



000
FTUS46 KOTX 192119 AAA
TAFGEG
TAF AMD
KGEG 192119Z 1921/2018 34005KT P6SM VCSH SCT070 BKN120
     FM192200 22010G17KT P6SM -TSRA BKN070CB BKN120
     FM200200 23011G18KT P6SM SCT100
     FM200300 22010KT P6SM SCT120=



000
FTUS46 KOTX 192119 AAA
TAFCOE
TAF AMD
KCOE 192119Z 1921/2018 04005KT P6SM VCSH SCT070 BKN120
     FM192200 22010G14KT P6SM -TSRA BKN080CB BKN120
     FM200200 17008KT P6SM SCT120
      AMD LTD TO CLD AND VIS=



000
FTUS46 KOTX 192119 AAA
TAFSFF
TAF AMD
KSFF 192119Z 1921/2018 07005KT P6SM VCSH SCT080 BKN120
     FM192200 22006G15KT P6SM -TSRA BKN080CB BKN120
     FM200200 23009G15KT P6SM SCT100
     FM200300 22005KT P6SM SCT120=



000
FTUS46 KOTX 191730
TAFGEG
TAF
KGEG 191730Z 1918/2018 07008KT P6SM VCSH SCT070 BKN120
     FM192000 22010G17KT P6SM -TSRA BKN070CB BKN120
     FM200200 23011G18KT P6SM SCT100
     FM200300 22010KT P6SM SCT120=



000
FTUS46 KOTX 191730
TAFCOE
TAF
KCOE 191730Z 1918/2018 04005KT P6SM VCSH SCT070 BKN120
     FM192000 23008KT P6SM -SHRA BKN080 BKN120
     FM192200 22010G14KT P6SM -TSRA BKN080CB BKN120
     FM200300 17008KT P6SM SCT120
      AMD LTD TO CLD AND VIS=



000
FTUS46 KOTX 191730
TAFPUW
TAF
KPUW 191730Z 1918/2018 28008KT P6SM VCSH SCT080 SCT120
     FM192100 26012G18KT P6SM VCSH BKN080 BKN120
     FM200200 25008KT P6SM SCT120=



000
FTUS46 KOTX 191730
TAFEAT
TAF
KEAT 191730Z 1918/2018 31015KT P6SM VCSH SCT080 BKN150
     FM192000 30014G20KT P6SM VCSH SCT080 SCT150
     FM200000 30019KT P6SM FEW150
     FM200500 30013KT P6SM SKC=



000
FTUS46 KOTX 191730
TAFLWS
TAF
KLWS 191730Z 1918/2018 00000KT P6SM SCT090 SCT120
     FM192000 30007KT P6SM VCSH SCT090 SCT120
     FM192200 30012G17KT P6SM VCSH BKN090 BKN120
     FM200400 25008KT P6SM SCT150=



000
FTUS46 KOTX 191730
TAFLWS
TAF
KLWS 191730Z 1918/2018 00000KT P6SM SCT090 SCT120
     FM192000 30007KT P6SM VCSH SCT090 SCT120
     FM192200 30012G17KT P6SM VCSH BKN090 BKN120
     FM200400 25008KT P6SM SCT150=



000
FTUS46 KOTX 191730
TAFMWH
TAF
KMWH 191730Z 1918/2018 27007KT P6SM VCSH SCT080 BKN150
     FM192200 27013G19KT P6SM VCSH SCT080 BKN150
     FM200400 27006KT P6SM SKC=



000
FTUS46 KOTX 191730
TAFPUW
TAF
KPUW 191730Z 1918/2018 28008KT P6SM VCSH SCT080 SCT120
     FM192100 26012G18KT P6SM VCSH BKN080 BKN120
     FM200200 25008KT P6SM SCT120=



000
FTUS46 KOTX 191730
TAFMWH
TAF
KMWH 191730Z 1918/2018 27007KT P6SM VCSH SCT080 BKN150
     FM192200 27013G19KT P6SM VCSH SCT080 BKN150
     FM200400 27006KT P6SM SKC=



000
FTUS46 KOTX 191730
TAFSFF
TAF
KSFF 191730Z 1918/2018 07005KT P6SM VCSH SCT080 BKN120
     FM192000 22006G15KT P6SM -TSRA BKN080CB BKN120
     FM200200 23009G15KT P6SM SCT100
     FM200300 22005KT P6SM SCT120=



000
FTUS46 KOTX 191730
TAFGEG
TAF
KGEG 191730Z 1918/2018 07008KT P6SM VCSH SCT070 BKN120
     FM192000 22010G17KT P6SM -TSRA BKN070CB BKN120
     FM200200 23011G18KT P6SM SCT100
     FM200300 22010KT P6SM SCT120=



000
FTUS46 KOTX 191730
TAFSFF
TAF
KSFF 191730Z 1918/2018 07005KT P6SM VCSH SCT080 BKN120
     FM192000 22006G15KT P6SM -TSRA BKN080CB BKN120
     FM200200 23009G15KT P6SM SCT100
     FM200300 22005KT P6SM SCT120=



000
FTUS46 KOTX 191730
TAFCOE
TAF
KCOE 191730Z 1918/2018 04005KT P6SM VCSH SCT070 BKN120
     FM192000 23008KT P6SM -SHRA BKN080 BKN120
     FM192200 22010G14KT P6SM -TSRA BKN080CB BKN120
     FM200300 17008KT P6SM SCT120
      AMD LTD TO CLD AND VIS=



000
FTUS46 KOTX 191730
TAFEAT
TAF
KEAT 191730Z 1918/2018 31015KT P6SM VCSH SCT080 BKN150
     FM192000 30014G20KT P6SM VCSH SCT080 SCT150
     FM200000 30019KT P6SM FEW150
     FM200500 30013KT P6SM SKC=



000
FTUS46 KOTX 191508 AAA
TAFGEG
TAF AMD
KGEG 191508Z 1915/2012 06007KT P6SM -SHRA BKN080 BKN120
     FM191800 22008KT P6SM VCSH SCT070 SCT120
     FM192000 22010G17KT P6SM -TSRA BKN070CB BKN120
     FM192300 23011G18KT P6SM SCT100
     FM200400 22010KT P6SM SCT120=



000
FTUS46 KOTX 191508 AAA
TAFSFF
TAF AMD
KSFF 191508Z 1915/2012 06004KT P6SM -SHRA BKN080 BKN120
     FM191800 22005KT P6SM VCSH SCT080 SCT120
     FM192000 22006G15KT P6SM -TSRA BKN080CB BKN120
     FM192300 23009G15KT P6SM SCT100
     FM200400 22005KT P6SM SCT120=



000
FTUS46 KOTX 191508 AAA
TAFSFF
TAF AMD
KSFF 191508Z 1915/2012 06004KT P6SM -SHRA BKN080 BKN120
     FM191800 22005KT P6SM VCSH SCT080 SCT120
     FM192000 22006G15KT P6SM -TSRA BKN080CB BKN120
     FM192300 23009G15KT P6SM SCT100
     FM200400 22005KT P6SM SCT120=



000
FTUS46 KOTX 191508 AAA
TAFGEG
TAF AMD
KGEG 191508Z 1915/2012 06007KT P6SM -SHRA BKN080 BKN120
     FM191800 22008KT P6SM VCSH SCT070 SCT120
     FM192000 22010G17KT P6SM -TSRA BKN070CB BKN120
     FM192300 23011G18KT P6SM SCT100
     FM200400 22010KT P6SM SCT120=



000
FTUS46 KOTX 191505 AAA
TAFCOE
TAF AMD
KCOE 191505Z 1915/2012 10005KT P6SM -SHRA BKN080 BKN120
     FM191700 17005KT P6SM VCSH SCT070 SCT120
     FM192100 23008KT P6SM -SHRA VCTS SCT070CB BKN120
     FM200000 22010G14KT P6SM SCT100
     FM200400 17008KT P6SM SCT120=



000
FTUS46 KOTX 191505 AAA
TAFCOE
TAF AMD

AMD L
 TD TO CLD AND VIS=



000
FTUS46 KOTX 191505 AAA
TAFCOE
TAF AMD
KCOE 191505Z 1915/2012 10005KT P6SM -SHRA BKN080 BKN120
     FM191700 17005KT P6SM VCSH SCT070 SCT120
     FM192100 23008KT P6SM -SHRA VCTS SCT070CB BKN120
     FM200000 22010G14KT P6SM SCT100
     FM200400 17008KT P6SM SCT120=



000
FTUS46 KOTX 191505 AAA
TAFCOE
TAF AMD

AMD L
 TD TO CLD AND VIS=



000
FTUS46 KOTX 191505 CCA
TAFCOE
TAF COR
KCOE 191505Z 1915/2012 10005KT P6SM -SHRA BKN080 BKN120
     FM191700 17005KT P6SM VCSH SCT070 SCT120
     FM192100 23008KT P6SM -SHRA VCTS SCT070CB BKN120
     FM200000 22010G14KT P6SM SCT100
     FM200400 17008KT P6SM SCT120
      AMD LTD TO CLD AND VIS=



000
FTUS46 KOTX 191505 CCA
TAFCOE
TAF COR
KCOE 191505Z 1915/2012 10005KT P6SM -SHRA BKN080 BKN120
     FM191700 17005KT P6SM VCSH SCT070 SCT120
     FM192100 23008KT P6SM -SHRA VCTS SCT070CB BKN120
     FM200000 22010G14KT P6SM SCT100
     FM200400 17008KT P6SM SCT120
      AMD LTD TO CLD AND VIS=



000
FTUS46 KOTX 191144
TAFEAT
TAF
KEAT 191144Z 1912/2012 29005KT P6SM BKN150
     FM192000 30014G20KT P6SM SCT120
     FM200000 30019KT P6SM FEW150
     FM200500 30013KT P6SM SKC=



000
FTUS46 KOTX 191144
TAFGEG
TAF
KGEG 191144Z 1912/2012 16007KT P6SM FEW090
     FM191600 22008KT P6SM VCSH SCT070 SCT120
     FM192000 22010G17KT P6SM -SHRA VCTS SCT070CB BKN120
     FM192300 23011G18KT P6SM SCT100
     FM200400 22010KT P6SM SCT120=



000
FTUS46 KOTX 191144
TAFPUW
TAF
KPUW 191144Z 1912/2012 00000KT P6SM FEW080
     FM191800 24008KT P6SM VCSH FEW090 SCT120
     FM192100 26012G18KT P6SM BKN100
     FM200200 25008KT P6SM SCT120=



000
FTUS46 KOTX 191144
TAFSFF
TAF
KSFF 191144Z 1912/2012 04004KT P6SM FEW090
     FM191600 22005KT P6SM VCSH SCT080 SCT120
     FM192000 22006G15KT P6SM -SHRA VCTS SCT080CB BKN120
     FM192300 23009G15KT P6SM SCT100
     FM200400 22005KT P6SM SCT120=



000
FTUS46 KOTX 191144
TAFLWS
TAF
KLWS 191144Z 1912/2012 00000KT P6SM SKC
     FM191900 30007KT P6SM VCSH FEW090 SCT120
     FM192200 30012G17KT P6SM BKN120
     FM200400 25008KT P6SM SCT150=



000
FTUS46 KOTX 191144
TAFCOE
TAF

AMD L
 TD TO CLD AND VIS=



000
FTUS46 KOTX 191144
TAFCOE
TAF
KCOE 191144Z 1912/2012 15005KT P6SM FEW080
     FM191700 17005KT P6SM VCSH SCT070 SCT120
     FM192100 23008KT P6SM -SHRA VCTS SCT070CB BKN120
     FM200000 22010G14KT P6SM SCT100
     FM200400 17008KT P6SM SCT120=



000
FTUS46 KOTX 191144
TAFMWH
TAF
KMWH 191144Z 1912/2012 27007KT P6SM FEW080 BKN150
     FM192200 27013G19KT P6SM SCT100
     FM200400 27006KT P6SM SKC=



000
FTUS46 KOTX 191144
TAFCOE
TAF

AMD L
 TD TO CLD AND VIS=



000
FTUS46 KOTX 191144
TAFCOE
TAF
KCOE 191144Z 1912/2012 15005KT P6SM FEW080
     FM191700 17005KT P6SM VCSH SCT070 SCT120
     FM192100 23008KT P6SM -SHRA VCTS SCT070CB BKN120
     FM200000 22010G14KT P6SM SCT100
     FM200400 17008KT P6SM SCT120=



000
FTUS46 KOTX 191144
TAFSFF
TAF
KSFF 191144Z 1912/2012 04004KT P6SM FEW090
     FM191600 22005KT P6SM VCSH SCT080 SCT120
     FM192000 22006G15KT P6SM -SHRA VCTS SCT080CB BKN120
     FM192300 23009G15KT P6SM SCT100
     FM200400 22005KT P6SM SCT120=



000
FTUS46 KOTX 191144
TAFPUW
TAF
KPUW 191144Z 1912/2012 00000KT P6SM FEW080
     FM191800 24008KT P6SM VCSH FEW090 SCT120
     FM192100 26012G18KT P6SM BKN100
     FM200200 25008KT P6SM SCT120=



000
FTUS46 KOTX 191144
TAFEAT
TAF
KEAT 191144Z 1912/2012 29005KT P6SM BKN150
     FM192000 30014G20KT P6SM SCT120
     FM200000 30019KT P6SM FEW150
     FM200500 30013KT P6SM SKC=



000
FTUS46 KOTX 191144
TAFMWH
TAF
KMWH 191144Z 1912/2012 27007KT P6SM FEW080 BKN150
     FM192200 27013G19KT P6SM SCT100
     FM200400 27006KT P6SM SKC=



000
FTUS46 KOTX 191144
TAFLWS
TAF
KLWS 191144Z 1912/2012 00000KT P6SM SKC
     FM191900 30007KT P6SM VCSH FEW090 SCT120
     FM192200 30012G17KT P6SM BKN120
     FM200400 25008KT P6SM SCT150=



000
FTUS46 KOTX 191144
TAFGEG
TAF
KGEG 191144Z 1912/2012 16007KT P6SM FEW090
     FM191600 22008KT P6SM VCSH SCT070 SCT120
     FM192000 22010G17KT P6SM -SHRA VCTS SCT070CB BKN120
     FM192300 23011G18KT P6SM SCT100
     FM200400 22010KT P6SM SCT120=



000
FTUS46 KOTX 190539
TAFLWS
TAF
KLWS 190539Z 1906/2006 VRB04KT P6SM SKC
     FM191900 30007KT P6SM SCT120
     FM192200 30012G17KT P6SM BKN120
     FM200300 29008KT P6SM SCT150=



000
FTUS46 KOTX 190539
TAFGEG
TAF
KGEG 190539Z 1906/2006 21005KT P6SM SKC
     FM191700 22010KT P6SM FEW070 SCT120
     FM192100 23012G17KT P6SM BKN100
     FM200300 22008KT P6SM SCT120=



000
FTUS46 KOTX 190539
TAFCOE
TAF
KCOE 190539Z 1906/2006 07004KT P6SM SKC
     FM191800 23009KT P6SM SCT070 SCT120
     FM192200 22010G16KT P6SM VCSH BKN100
     FM200200 19006KT P6SM SCT120
      AMD LTD TO CLD AND VIS=



000
FTUS46 KOTX 190539
TAFEAT
TAF
KEAT 190539Z 1906/2006 29009KT P6SM BKN200
     FM191200 31013KT P6SM BKN120 BKN200
     FM192000 30014G20KT P6SM SCT120
     FM200200 30019KT P6SM SKC=



000
FTUS46 KOTX 190539
TAFGEG
TAF
KGEG 190539Z 1906/2006 21005KT P6SM SKC
     FM191700 22010KT P6SM FEW070 SCT120
     FM192100 23012G17KT P6SM BKN100
     FM200300 22008KT P6SM SCT120=



000
FTUS46 KOTX 190539
TAFMWH
TAF
KMWH 190539Z 1906/2006 VRB03KT P6SM FEW200
     FM191500 23005KT P6SM BKN120 BKN200
     FM191900 27011G16KT P6SM SCT100
     FM200400 27008KT P6SM SKC=



000
FTUS46 KOTX 190539
TAFMWH
TAF
KMWH 190539Z 1906/2006 VRB03KT P6SM FEW200
     FM191500 23005KT P6SM BKN120 BKN200
     FM191900 27011G16KT P6SM SCT100
     FM200400 27008KT P6SM SKC=



000
FTUS46 KOTX 190539
TAFSFF
TAF
KSFF 190539Z 1906/2006 VRB04KT P6SM SKC
     FM191700 21007KT P6SM FEW070 SCT120
     FM192100 23009G15KT P6SM BKN110
     FM200300 23005KT P6SM SCT120=



000
FTUS46 KOTX 190539
TAFLWS
TAF
KLWS 190539Z 1906/2006 VRB04KT P6SM SKC
     FM191900 30007KT P6SM SCT120
     FM192200 30012G17KT P6SM BKN120
     FM200300 29008KT P6SM SCT150=



000
FTUS46 KOTX 190539
TAFPUW
TAF
KPUW 190539Z 1906/2006 VRB02KT P6SM SKC
     FM191800 24008KT P6SM SCT120
     FM192100 26011G18KT P6SM BKN100
     FM200200 25008KT P6SM SCT120=



000
FTUS46 KOTX 190539
TAFEAT
TAF
KEAT 190539Z 1906/2006 29009KT P6SM BKN200
     FM191200 31013KT P6SM BKN120 BKN200
     FM192000 30014G20KT P6SM SCT120
     FM200200 30019KT P6SM SKC=



000
FTUS46 KOTX 190539
TAFSFF
TAF
KSFF 190539Z 1906/2006 VRB04KT P6SM SKC
     FM191700 21007KT P6SM FEW070 SCT120
     FM192100 23009G15KT P6SM BKN110
     FM200300 23005KT P6SM SCT120=



000
FTUS46 KOTX 190539
TAFCOE
TAF
KCOE 190539Z 1906/2006 07004KT P6SM SKC
     FM191800 23009KT P6SM SCT070 SCT120
     FM192200 22010G16KT P6SM VCSH BKN100
     FM200200 19006KT P6SM SCT120
      AMD LTD TO CLD AND VIS=



000
FTUS46 KOTX 190539
TAFPUW
TAF
KPUW 190539Z 1906/2006 VRB02KT P6SM SKC
     FM191800 24008KT P6SM SCT120
     FM192100 26011G18KT P6SM BKN100
     FM200200 25008KT P6SM SCT120=



    US Dept of Commerce
    National Oceanic and Atmospheric Administration
    National Weather Service
    1325 East West Highway
    Silver Spring, MD 20910
    Page Author: NWS Internet Services Team
Disclaimer
Information Quality
Credits
Glossary
Privacy Policy
Freedom of Information Act (FOIA)
About Us
Career Opportunities